sensor_id;sensor_type;location;lat;lon;timestamp;temperature;humidity
27647;DHT22;42229;51.230;6.240;2023-01-15T00:00:25;8.70;99.90
27647;DHT22;42229;51.230;6.240;2023-01-15T00:02:51;8.70;99.90
27647;DHT22;42229;51.230;6.240;2023-01-15T00:05:18;8.70;99.90
27647;DHT22;42229;51.230;6.240;2023-01-15T00:07:44;8.70;99.90
27647;DHT22;42229;51.230;6.240;2023-01-15T00:10:10;8.60;99.90
27647;DHT22;42229;51.230;6.240;2023-01-15T00:12:36;8.60;99.90
27647;DHT22;42229;51.230;6.240;2023-01-15T00:15:02;8.50;99.90
27647;DHT22;42229;51.230;6.240;2023-01-15T00:17:29;8.50;99.90
27647;DHT22;42229;51.230;6.240;2023-01-15T00:19:55;8.50;99.90
27647;DHT22;42229;51.230;6.240;2023-01-15T00:22:21;8.50;99.90
27647;DHT22;42229;51.230;6.240;2023-01-15T00:24:47;8.50;99.90
27647;DHT22;42229;51.230;6.240;2023-01-15T00:27:32;8.40;99.90
27647;DHT22;42229;51.230;6.240;2023-01-15T00:30:06;8.40;99.90
27647;DHT22;42229;51.230;6.240;2023-01-15T00:32:37;8.40;99.90
27647;DHT22;42229;51.230;6.240;2023-01-15T00:35:04;8.40;99.90
27647;DHT22;42229;51.230;6.240;2023-01-15T00:37:30;8.40;99.90
27647;DHT22;42229;51.230;6.240;2023-01-15T00:39:57;8.50;99.90
27647;DHT22;42229;51.230;6.240;2023-01-15T00:42:23;8.40;99.90
27647;DHT22;42229;51.230;6.240;2023-01-15T00:44:49;8.50;99.90
27647;DHT22;42229;51.230;6.240;2023-01-15T00:47:15;8.50;99.90
27647;DHT22;42229;51.230;6.240;2023-01-15T00:49:41;8.50;99.90
27647;DHT22;42229;51.230;6.240;2023-01-15T00:52:08;8.50;99.90
27647;DHT22;42229;51.230;6.240;2023-01-15T00:54:35;8.50;99.90
27647;DHT22;42229;51.230;6.240;2023-01-15T00:57:02;8.50;99.90
27647;DHT22;42229;51.230;6.240;2023-01-15T00:59:28;8.50;99.90
27647;DHT22;42229;51.230;6.240;2023-01-15T01:01:54;8.50;99.90
27647;DHT22;42229;51.230;6.240;2023-01-15T01:04:20;8.50;99.90
27647;DHT22;42229;51.230;6.240;2023-01-15T01:06:47;8.50;99.90
27647;DHT22;42229;51.230;6.240;2023-01-15T01:09:13;8.40;99.90
27647;DHT22;42229;51.230;6.240;2023-01-15T01:11:39;8.50;99.90
27647;DHT22;42229;51.230;6.240;2023-01-15T01:14:06;8.40;99.90
27647;DHT22;42229;51.230;6.240;2023-01-15T01:16:33;8.40;99.90
27647;DHT22;42229;51.230;6.240;2023-01-15T01:19:03;8.40;99.90
27647;DHT22;42229;51.230;6.240;2023-01-15T01:21:31;8.40;99.90
27647;DHT22;42229;51.230;6.240;2023-01-15T01:23:58;8.40;99.90
27647;DHT22;42229;51.230;6.240;2023-01-15T01:26:25;8.40;99.90
27647;DHT22;42229;51.230;6.240;2023-01-15T01:28:55;8.50;99.90
27647;DHT22;42229;51.230;6.240;2023-01-15T01:31:22;8.40;99.90
27647;DHT22;42229;51.230;6.240;2023-01-15T01:33:49;8.40;99.90
27647;DHT22;42229;51.230;6.240;2023-01-15T01:36:16;8.40;99.90
27647;DHT22;42229;51.230;6.240;2023-01-15T01:38:43;8.50;99.90
27647;DHT22;42229;51.230;6.240;2023-01-15T01:41:10;8.40;99.90
27647;DHT22;42229;51.230;6.240;2023-01-15T01:46:28;8.50;99.90
27647;DHT22;42229;51.230;6.240;2023-01-15T01:49:05;8.50;99.90
27647;DHT22;42229;51.230;6.240;2023-01-15T01:51:35;8.50;99.90
27647;DHT22;42229;51.230;6.240;2023-01-15T01:54:05;8.50;99.90
27647;DHT22;42229;51.230;6.240;2023-01-15T01:56:33;8.50;99.90
27647;DHT22;42229;51.230;6.240;2023-01-15T01:59:00;8.60;99.90
27647;DHT22;42229;51.230;6.240;2023-01-15T02:01:27;8.60;99.90
27647;DHT22;42229;51.230;6.240;2023-01-15T02:03:53;8.60;99.90
27647;DHT22;42229;51.230;6.240;2023-01-15T02:06:20;8.60;99.90
27647;DHT22;42229;51.230;6.240;2023-01-15T02:08:47;8.70;99.90
27647;DHT22;42229;51.230;6.240;2023-01-15T02:11:15;8.70;99.90
27647;DHT22;42229;51.230;6.240;2023-01-15T02:25:09;8.80;99.90
27647;DHT22;42229;51.230;6.240;2023-01-15T02:27:41;8.80;99.90
27647;DHT22;42229;51.230;6.240;2023-01-15T02:30:17;8.80;99.90
27647;DHT22;42229;51.230;6.240;2023-01-15T02:32:55;8.80;99.90
27647;DHT22;42229;51.230;6.240;2023-01-15T02:35:29;8.80;99.90
27647;DHT22;42229;51.230;6.240;2023-01-15T02:38:04;8.80;99.90
27647;DHT22;42229;51.230;6.240;2023-01-15T02:40:32;8.90;99.90
27647;DHT22;42229;51.230;6.240;2023-01-15T02:43:00;8.90;99.90
27647;DHT22;42229;51.230;6.240;2023-01-15T02:45:29;8.90;99.90
27647;DHT22;42229;51.230;6.240;2023-01-15T02:48:07;8.90;99.90
27647;DHT22;42229;51.230;6.240;2023-01-15T02:50:37;9.00;99.90
27647;DHT22;42229;51.230;6.240;2023-01-15T02:53:06;8.90;99.90
27647;DHT22;42229;51.230;6.240;2023-01-15T02:55:38;8.90;99.90
27647;DHT22;42229;51.230;6.240;2023-01-15T02:58:08;8.90;99.90
27647;DHT22;42229;51.230;6.240;2023-01-15T03:00:37;8.90;99.90
27647;DHT22;42229;51.230;6.240;2023-01-15T03:03:07;8.90;99.90
27647;DHT22;42229;51.230;6.240;2023-01-15T03:06:22;9.00;99.90
27647;DHT22;42229;51.230;6.240;2023-01-15T03:08:56;9.00;99.90
27647;DHT22;42229;51.230;6.240;2023-01-15T03:11:22;9.00;99.90
27647;DHT22;42229;51.230;6.240;2023-01-15T03:13:59;9.00;99.90
27647;DHT22;42229;51.230;6.240;2023-01-15T03:16:32;9.00;99.90
27647;DHT22;42229;51.230;6.240;2023-01-15T03:19:01;9.00;99.90
27647;DHT22;42229;51.230;6.240;2023-01-15T03:21:36;9.00;99.90
27647;DHT22;42229;51.230;6.240;2023-01-15T03:24:09;9.10;99.90
27647;DHT22;42229;51.230;6.240;2023-01-15T03:26:36;9.10;99.90
27647;DHT22;42229;51.230;6.240;2023-01-15T03:29:03;9.10;99.90
27647;DHT22;42229;51.230;6.240;2023-01-15T03:31:32;9.10;99.90
27647;DHT22;42229;51.230;6.240;2023-01-15T03:33:59;9.10;99.90
27647;DHT22;42229;51.230;6.240;2023-01-15T03:36:27;9.10;99.90
27647;DHT22;42229;51.230;6.240;2023-01-15T03:38:58;9.10;99.90
27647;DHT22;42229;51.230;6.240;2023-01-15T03:41:49;9.10;99.90
27647;DHT22;42229;51.230;6.240;2023-01-15T03:47:10;9.10;99.90
27647;DHT22;42229;51.230;6.240;2023-01-15T03:49:53;9.10;99.90
27647;DHT22;42229;51.230;6.240;2023-01-15T03:52:52;9.10;99.90
27647;DHT22;42229;51.230;6.240;2023-01-15T03:55:51;9.00;99.90
27647;DHT22;42229;51.230;6.240;2023-01-15T03:58:28;9.10;99.90
27647;DHT22;42229;51.230;6.240;2023-01-15T04:00:57;9.10;99.90
27647;DHT22;42229;51.230;6.240;2023-01-15T04:03:27;9.00;99.90
27647;DHT22;42229;51.230;6.240;2023-01-15T04:05:56;9.00;99.90
27647;DHT22;42229;51.230;6.240;2023-01-15T04:08:25;9.00;99.90
27647;DHT22;42229;51.230;6.240;2023-01-15T04:10:54;9.00;99.90
27647;DHT22;42229;51.230;6.240;2023-01-15T04:13:27;9.00;99.90
27647;DHT22;42229;51.230;6.240;2023-01-15T04:15:55;9.00;99.90
27647;DHT22;42229;51.230;6.240;2023-01-15T04:18:21;9.00;99.90
27647;DHT22;42229;51.230;6.240;2023-01-15T04:20:47;9.00;99.90
27647;DHT22;42229;51.230;6.240;2023-01-15T04:23:15;9.00;99.90
27647;DHT22;42229;51.230;6.240;2023-01-15T04:25:41;9.00;99.90
27647;DHT22;42229;51.230;6.240;2023-01-15T04:28:08;9.00;99.90
27647;DHT22;42229;51.230;6.240;2023-01-15T04:30:34;9.00;99.90
27647;DHT22;42229;51.230;6.240;2023-01-15T04:33:01;9.00;99.90
27647;DHT22;42229;51.230;6.240;2023-01-15T04:35:29;9.00;99.90
27647;DHT22;42229;51.230;6.240;2023-01-15T04:37:58;9.00;99.90
27647;DHT22;42229;51.230;6.240;2023-01-15T04:40:25;9.00;99.90
27647;DHT22;42229;51.230;6.240;2023-01-15T04:43:11;9.00;99.90
27647;DHT22;42229;51.230;6.240;2023-01-15T04:45:57;9.00;99.90
27647;DHT22;42229;51.230;6.240;2023-01-15T04:48:24;9.00;99.90
27647;DHT22;42229;51.230;6.240;2023-01-15T04:50:50;9.00;99.90
27647;DHT22;42229;51.230;6.240;2023-01-15T04:53:16;9.00;99.90
27647;DHT22;42229;51.230;6.240;2023-01-15T04:55:43;9.00;99.90
27647;DHT22;42229;51.230;6.240;2023-01-15T04:58:09;9.00;99.90
27647;DHT22;42229;51.230;6.240;2023-01-15T05:00:35;9.00;99.90
27647;DHT22;42229;51.230;6.240;2023-01-15T05:03:01;9.00;99.90
27647;DHT22;42229;51.230;6.240;2023-01-15T05:05:28;8.90;99.90
27647;DHT22;42229;51.230;6.240;2023-01-15T05:07:54;8.90;99.90
27647;DHT22;42229;51.230;6.240;2023-01-15T05:10:20;8.90;99.90
27647;DHT22;42229;51.230;6.240;2023-01-15T05:12:46;9.00;99.90
27647;DHT22;42229;51.230;6.240;2023-01-15T05:15:15;9.00;99.90
27647;DHT22;42229;51.230;6.240;2023-01-15T05:17:41;9.00;99.90
27647;DHT22;42229;51.230;6.240;2023-01-15T05:20:07;9.00;99.90
27647;DHT22;42229;51.230;6.240;2023-01-15T05:22:34;9.00;99.90
27647;DHT22;42229;51.230;6.240;2023-01-15T05:25:00;8.90;99.90
27647;DHT22;42229;51.230;6.240;2023-01-15T05:27:26;9.00;99.90
27647;DHT22;42229;51.230;6.240;2023-01-15T05:29:53;8.90;99.90
27647;DHT22;42229;51.230;6.240;2023-01-15T05:32:19;9.00;99.90
27647;DHT22;42229;51.230;6.240;2023-01-15T05:34:45;9.00;99.90
27647;DHT22;42229;51.230;6.240;2023-01-15T05:37:11;9.00;99.90
27647;DHT22;42229;51.230;6.240;2023-01-15T05:39:38;9.00;99.90
27647;DHT22;42229;51.230;6.240;2023-01-15T05:42:04;9.00;99.90
27647;DHT22;42229;51.230;6.240;2023-01-15T05:44:30;9.00;99.90
27647;DHT22;42229;51.230;6.240;2023-01-15T05:46:58;8.90;99.90
27647;DHT22;42229;51.230;6.240;2023-01-15T05:49:28;8.90;99.90
27647;DHT22;42229;51.230;6.240;2023-01-15T05:51:56;9.00;99.90
27647;DHT22;42229;51.230;6.240;2023-01-15T05:54:24;9.00;99.90
27647;DHT22;42229;51.230;6.240;2023-01-15T05:56:52;9.00;99.90
27647;DHT22;42229;51.230;6.240;2023-01-15T05:59:19;9.00;99.90
27647;DHT22;42229;51.230;6.240;2023-01-15T06:01:46;8.90;99.90
27647;DHT22;42229;51.230;6.240;2023-01-15T06:04:13;8.90;99.90
27647;DHT22;42229;51.230;6.240;2023-01-15T06:06:40;8.90;99.90
27647;DHT22;42229;51.230;6.240;2023-01-15T06:09:07;8.90;99.90
27647;DHT22;42229;51.230;6.240;2023-01-15T06:11:33;8.90;99.90
27647;DHT22;42229;51.230;6.240;2023-01-15T06:13:59;8.90;99.90
27647;DHT22;42229;51.230;6.240;2023-01-15T06:16:25;8.90;99.90
27647;DHT22;42229;51.230;6.240;2023-01-15T06:18:52;9.00;99.90
27647;DHT22;42229;51.230;6.240;2023-01-15T06:21:18;8.90;99.90
27647;DHT22;42229;51.230;6.240;2023-01-15T06:23:44;8.90;99.90
27647;DHT22;42229;51.230;6.240;2023-01-15T06:26:12;8.90;99.90
27647;DHT22;42229;51.230;6.240;2023-01-15T06:28:40;8.90;99.90
27647;DHT22;42229;51.230;6.240;2023-01-15T06:31:10;8.90;99.90
27647;DHT22;42229;51.230;6.240;2023-01-15T06:33:38;8.90;99.90
27647;DHT22;42229;51.230;6.240;2023-01-15T06:36:05;8.90;99.90
27647;DHT22;42229;51.230;6.240;2023-01-15T06:38:33;8.90;99.90
27647;DHT22;42229;51.230;6.240;2023-01-15T06:41:00;8.90;99.90
27647;DHT22;42229;51.230;6.240;2023-01-15T06:43:27;8.90;99.90
27647;DHT22;42229;51.230;6.240;2023-01-15T06:46:12;8.90;99.90
27647;DHT22;42229;51.230;6.240;2023-01-15T06:48:57;8.90;99.90
27647;DHT22;42229;51.230;6.240;2023-01-15T06:51:23;8.80;99.90
27647;DHT22;42229;51.230;6.240;2023-01-15T06:53:50;8.90;99.90
27647;DHT22;42229;51.230;6.240;2023-01-15T06:56:16;8.90;99.90
27647;DHT22;42229;51.230;6.240;2023-01-15T06:58:42;8.80;99.90
27647;DHT22;42229;51.230;6.240;2023-01-15T07:01:13;8.80;99.90
27647;DHT22;42229;51.230;6.240;2023-01-15T07:03:40;8.80;99.90
27647;DHT22;42229;51.230;6.240;2023-01-15T07:06:10;8.80;99.90
27647;DHT22;42229;51.230;6.240;2023-01-15T07:08:37;8.80;99.90
27647;DHT22;42229;51.230;6.240;2023-01-15T07:11:05;8.70;99.90
27647;DHT22;42229;51.230;6.240;2023-01-15T07:13:34;8.70;99.90
27647;DHT22;42229;51.230;6.240;2023-01-15T07:16:01;8.70;99.90
27647;DHT22;42229;51.230;6.240;2023-01-15T07:18:28;8.70;99.90
27647;DHT22;42229;51.230;6.240;2023-01-15T07:20:56;8.70;99.90
27647;DHT22;42229;51.230;6.240;2023-01-15T07:23:23;8.60;99.90
27647;DHT22;42229;51.230;6.240;2023-01-15T07:25:53;8.60;99.90
27647;DHT22;42229;51.230;6.240;2023-01-15T07:28:20;8.70;99.90
27647;DHT22;42229;51.230;6.240;2023-01-15T07:30:47;8.60;99.90
27647;DHT22;42229;51.230;6.240;2023-01-15T07:33:13;8.60;99.90
27647;DHT22;42229;51.230;6.240;2023-01-15T07:35:40;8.60;99.90
27647;DHT22;42229;51.230;6.240;2023-01-15T07:38:06;8.60;99.90
27647;DHT22;42229;51.230;6.240;2023-01-15T07:40:32;8.60;99.90
27647;DHT22;42229;51.230;6.240;2023-01-15T07:42:58;8.60;99.90
27647;DHT22;42229;51.230;6.240;2023-01-15T07:45:43;8.60;99.90
27647;DHT22;42229;51.230;6.240;2023-01-15T07:48:28;8.50;99.90
27647;DHT22;42229;51.230;6.240;2023-01-15T07:51:13;8.40;99.90
27647;DHT22;42229;51.230;6.240;2023-01-15T07:53:39;8.40;99.90
27647;DHT22;42229;51.230;6.240;2023-01-15T07:56:06;8.30;99.90
27647;DHT22;42229;51.230;6.240;2023-01-15T07:58:32;8.30;99.90
27647;DHT22;42229;51.230;6.240;2023-01-15T08:00:58;8.20;99.90
27647;DHT22;42229;51.230;6.240;2023-01-15T08:03:25;8.20;99.90
27647;DHT22;42229;51.230;6.240;2023-01-15T08:05:51;8.10;99.90
27647;DHT22;42229;51.230;6.240;2023-01-15T08:08:17;8.10;99.90
27647;DHT22;42229;51.230;6.240;2023-01-15T08:10:44;8.10;99.90
27647;DHT22;42229;51.230;6.240;2023-01-15T08:13:29;8.10;99.90
27647;DHT22;42229;51.230;6.240;2023-01-15T08:16:14;8.10;99.90
27647;DHT22;42229;51.230;6.240;2023-01-15T08:18:40;8.10;99.90
27647;DHT22;42229;51.230;6.240;2023-01-15T08:21:06;8.10;99.90
27647;DHT22;42229;51.230;6.240;2023-01-15T08:23:38;8.10;99.90
27647;DHT22;42229;51.230;6.240;2023-01-15T08:26:04;8.00;99.90
27647;DHT22;42229;51.230;6.240;2023-01-15T08:28:31;8.00;99.90
27647;DHT22;42229;51.230;6.240;2023-01-15T08:30:57;8.00;99.90
27647;DHT22;42229;51.230;6.240;2023-01-15T08:33:23;7.90;99.90
27647;DHT22;42229;51.230;6.240;2023-01-15T08:35:49;7.90;99.90
27647;DHT22;42229;51.230;6.240;2023-01-15T08:38:15;7.90;99.90
27647;DHT22;42229;51.230;6.240;2023-01-15T08:40:42;7.90;99.90
27647;DHT22;42229;51.230;6.240;2023-01-15T08:43:24;7.90;99.90
27647;DHT22;42229;51.230;6.240;2023-01-15T08:45:52;7.80;99.90
27647;DHT22;42229;51.230;6.240;2023-01-15T08:48:20;7.80;99.90
27647;DHT22;42229;51.230;6.240;2023-01-15T08:50:46;7.80;99.90
27647;DHT22;42229;51.230;6.240;2023-01-15T08:53:12;7.80;99.90
27647;DHT22;42229;51.230;6.240;2023-01-15T08:55:39;7.80;99.90
27647;DHT22;42229;51.230;6.240;2023-01-15T08:58:05;7.80;99.90
27647;DHT22;42229;51.230;6.240;2023-01-15T09:00:31;7.80;99.90
27647;DHT22;42229;51.230;6.240;2023-01-15T09:02:59;7.80;99.90
27647;DHT22;42229;51.230;6.240;2023-01-15T09:05:25;7.80;99.90
27647;DHT22;42229;51.230;6.240;2023-01-15T09:07:53;7.70;99.90
27647;DHT22;42229;51.230;6.240;2023-01-15T09:10:20;7.70;99.90
27647;DHT22;42229;51.230;6.240;2023-01-15T09:12:47;7.60;99.90
27647;DHT22;42229;51.230;6.240;2023-01-15T09:15:13;7.70;99.90
27647;DHT22;42229;51.230;6.240;2023-01-15T09:17:39;7.70;99.90
27647;DHT22;42229;51.230;6.240;2023-01-15T09:20:07;7.70;99.90
27647;DHT22;42229;51.230;6.240;2023-01-15T09:22:35;7.70;99.90
27647;DHT22;42229;51.230;6.240;2023-01-15T09:25:01;7.70;99.90
27647;DHT22;42229;51.230;6.240;2023-01-15T09:27:28;7.80;99.90
27647;DHT22;42229;51.230;6.240;2023-01-15T09:29:55;7.90;99.90
27647;DHT22;42229;51.230;6.240;2023-01-15T09:32:21;7.90;99.90
27647;DHT22;42229;51.230;6.240;2023-01-15T09:34:47;8.00;99.90
27647;DHT22;42229;51.230;6.240;2023-01-15T09:37:14;8.10;99.90
27647;DHT22;42229;51.230;6.240;2023-01-15T09:39:41;8.10;99.90
27647;DHT22;42229;51.230;6.240;2023-01-15T09:47:46;8.20;99.90
27647;DHT22;42229;51.230;6.240;2023-01-15T09:53:09;8.40;99.90
27647;DHT22;42229;51.230;6.240;2023-01-15T09:55:44;8.40;99.90
27647;DHT22;42229;51.230;6.240;2023-01-15T09:58:12;8.50;99.90
27647;DHT22;42229;51.230;6.240;2023-01-15T10:00:42;8.60;99.90
27647;DHT22;42229;51.230;6.240;2023-01-15T10:03:17;8.60;99.90
27647;DHT22;42229;51.230;6.240;2023-01-15T10:05:49;8.70;99.90
27647;DHT22;42229;51.230;6.240;2023-01-15T10:08:32;8.80;99.90
27647;DHT22;42229;51.230;6.240;2023-01-15T10:13:45;8.90;99.90
27647;DHT22;42229;51.230;6.240;2023-01-15T10:16:25;9.00;99.90
27647;DHT22;42229;51.230;6.240;2023-01-15T10:18:52;9.10;99.90
27647;DHT22;42229;51.230;6.240;2023-01-15T10:29:24;9.10;99.90
27647;DHT22;42229;51.230;6.240;2023-01-15T10:32:03;9.20;99.90
27647;DHT22;42229;51.230;6.240;2023-01-15T10:37:53;9.20;99.90
27647;DHT22;42229;51.230;6.240;2023-01-15T10:45:24;9.20;99.90
27647;DHT22;42229;51.230;6.240;2023-01-15T10:47:56;9.30;99.90
27647;DHT22;42229;51.230;6.240;2023-01-15T10:50:26;9.30;99.90
27647;DHT22;42229;51.230;6.240;2023-01-15T10:53:07;9.40;99.90
27647;DHT22;42229;51.230;6.240;2023-01-15T10:55:46;9.40;99.90
27647;DHT22;42229;51.230;6.240;2023-01-15T10:58:20;9.40;99.90
27647;DHT22;42229;51.230;6.240;2023-01-15T11:01:07;9.50;99.90
27647;DHT22;42229;51.230;6.240;2023-01-15T11:03:37;9.40;99.90
27647;DHT22;42229;51.230;6.240;2023-01-15T11:06:05;9.40;99.90
27647;DHT22;42229;51.230;6.240;2023-01-15T11:08:37;9.30;99.90
27647;DHT22;42229;51.230;6.240;2023-01-15T11:11:48;9.40;99.90
27647;DHT22;42229;51.230;6.240;2023-01-15T11:14:15;9.40;99.90
27647;DHT22;42229;51.230;6.240;2023-01-15T11:17:02;9.40;99.90
27647;DHT22;42229;51.230;6.240;2023-01-15T11:20:28;9.40;99.90
27647;DHT22;42229;51.230;6.240;2023-01-15T11:22:56;9.40;99.90
27647;DHT22;42229;51.230;6.240;2023-01-15T11:25:27;9.40;99.90
27647;DHT22;42229;51.230;6.240;2023-01-15T11:27:54;9.40;99.90
27647;DHT22;42229;51.230;6.240;2023-01-15T11:33:22;9.30;99.90
27647;DHT22;42229;51.230;6.240;2023-01-15T11:35:50;9.30;99.90
27647;DHT22;42229;51.230;6.240;2023-01-15T11:38:17;9.20;99.90
27647;DHT22;42229;51.230;6.240;2023-01-15T11:40:54;9.20;99.90
27647;DHT22;42229;51.230;6.240;2023-01-15T11:43:24;9.20;99.90
27647;DHT22;42229;51.230;6.240;2023-01-15T11:46:30;9.20;99.90
27647;DHT22;42229;51.230;6.240;2023-01-15T11:49:19;9.30;99.90
27647;DHT22;42229;51.230;6.240;2023-01-15T11:52:09;9.20;99.90
27647;DHT22;42229;51.230;6.240;2023-01-15T11:54:38;9.30;99.90
27647;DHT22;42229;51.230;6.240;2023-01-15T11:57:07;9.40;99.90
27647;DHT22;42229;51.230;6.240;2023-01-15T11:59:33;9.40;99.90
27647;DHT22;42229;51.230;6.240;2023-01-15T12:02:09;9.40;99.90
27647;DHT22;42229;51.230;6.240;2023-01-15T12:04:48;9.50;99.90
27647;DHT22;42229;51.230;6.240;2023-01-15T12:07:22;9.50;99.90
27647;DHT22;42229;51.230;6.240;2023-01-15T12:12:58;9.50;99.90
27647;DHT22;42229;51.230;6.240;2023-01-15T12:15:37;9.50;99.90
27647;DHT22;42229;51.230;6.240;2023-01-15T12:21:15;9.60;99.90
27647;DHT22;42229;51.230;6.240;2023-01-15T12:29:41;10.00;99.90
27647;DHT22;42229;51.230;6.240;2023-01-15T12:32:15;10.20;99.90
27647;DHT22;42229;51.230;6.240;2023-01-15T12:35:03;10.30;99.90
27647;DHT22;42229;51.230;6.240;2023-01-15T12:37:40;10.50;99.90
27647;DHT22;42229;51.230;6.240;2023-01-15T12:43:15;10.70;99.90
27647;DHT22;42229;51.230;6.240;2023-01-15T12:46:05;10.60;99.90
27647;DHT22;42229;51.230;6.240;2023-01-15T12:51:21;10.30;99.90
27647;DHT22;42229;51.230;6.240;2023-01-15T12:53:52;10.20;99.90
27647;DHT22;42229;51.230;6.240;2023-01-15T12:56:32;10.00;99.90
27647;DHT22;42229;51.230;6.240;2023-01-15T12:59:10;9.90;99.90
27647;DHT22;42229;51.230;6.240;2023-01-15T13:02:03;9.80;99.90
27647;DHT22;42229;51.230;6.240;2023-01-15T13:04:41;9.70;99.90
27647;DHT22;42229;51.230;6.240;2023-01-15T13:12:47;9.60;99.90
27647;DHT22;42229;51.230;6.240;2023-01-15T13:15:14;9.50;99.90
27647;DHT22;42229;51.230;6.240;2023-01-15T13:18:25;9.50;99.90
27647;DHT22;42229;51.230;6.240;2023-01-15T13:20:42;9.50;99.90
27647;DHT22;42229;51.230;6.240;2023-01-15T13:26:22;9.60;99.90
27647;DHT22;42229;51.230;6.240;2023-01-15T13:29:13;9.50;99.90
27647;DHT22;42229;51.230;6.240;2023-01-15T13:34:46;9.50;99.90
27647;DHT22;42229;51.230;6.240;2023-01-15T13:37:36;9.40;99.90
27647;DHT22;42229;51.230;6.240;2023-01-15T13:40:10;9.40;99.90
27647;DHT22;42229;51.230;6.240;2023-01-15T13:42:37;9.50;99.90
27647;DHT22;42229;51.230;6.240;2023-01-15T13:47:43;9.50;99.90
27647;DHT22;42229;51.230;6.240;2023-01-15T13:50:36;9.50;99.90
27647;DHT22;42229;51.230;6.240;2023-01-15T13:53:23;9.50;99.90
27647;DHT22;42229;51.230;6.240;2023-01-15T13:56:02;9.50;99.90
27647;DHT22;42229;51.230;6.240;2023-01-15T13:58:32;9.40;99.90
27647;DHT22;42229;51.230;6.240;2023-01-15T14:06:35;9.30;99.90
27647;DHT22;42229;51.230;6.240;2023-01-15T14:09:09;9.40;99.90
27647;DHT22;42229;51.230;6.240;2023-01-15T14:11:38;9.30;99.90
27647;DHT22;42229;51.230;6.240;2023-01-15T14:16:47;9.50;99.90
27647;DHT22;42229;51.230;6.240;2023-01-15T14:32:51;9.50;99.90
27647;DHT22;42229;51.230;6.240;2023-01-15T14:35:32;9.50;99.90
27647;DHT22;42229;51.230;6.240;2023-01-15T14:38:04;9.50;99.90
27647;DHT22;42229;51.230;6.240;2023-01-15T14:40:32;9.50;99.90
27647;DHT22;42229;51.230;6.240;2023-01-15T14:43:06;9.60;99.90
27647;DHT22;42229;51.230;6.240;2023-01-15T14:45:36;9.50;99.90
27647;DHT22;42229;51.230;6.240;2023-01-15T14:48:05;9.50;99.90
27647;DHT22;42229;51.230;6.240;2023-01-15T14:50:42;9.50;99.90
27647;DHT22;42229;51.230;6.240;2023-01-15T15:01:20;9.40;99.90
27647;DHT22;42229;51.230;6.240;2023-01-15T15:03:55;9.40;99.90
27647;DHT22;42229;51.230;6.240;2023-01-15T15:06:27;9.40;99.90
27647;DHT22;42229;51.230;6.240;2023-01-15T15:08:59;9.50;99.90
27647;DHT22;42229;51.230;6.240;2023-01-15T15:11:32;9.50;99.90
27647;DHT22;42229;51.230;6.240;2023-01-15T15:14:21;9.40;99.90
27647;DHT22;42229;51.230;6.240;2023-01-15T15:16:49;9.30;99.90
27647;DHT22;42229;51.230;6.240;2023-01-15T15:19:29;9.40;99.90
27647;DHT22;42229;51.230;6.240;2023-01-15T15:22:04;9.40;99.90
27647;DHT22;42229;51.230;6.240;2023-01-15T15:24:32;9.30;99.90
27647;DHT22;42229;51.230;6.240;2023-01-15T15:27:10;9.30;99.90
27647;DHT22;42229;51.230;6.240;2023-01-15T15:29:40;9.20;99.90
27647;DHT22;42229;51.230;6.240;2023-01-15T15:32:07;9.20;99.90
27647;DHT22;42229;51.230;6.240;2023-01-15T15:34:37;9.20;99.90
27647;DHT22;42229;51.230;6.240;2023-01-15T15:37:27;9.20;99.90
27647;DHT22;42229;51.230;6.240;2023-01-15T15:39:57;9.10;99.90
27647;DHT22;42229;51.230;6.240;2023-01-15T15:42:26;9.00;99.90
27647;DHT22;42229;51.230;6.240;2023-01-15T15:45:15;8.90;99.90
27647;DHT22;42229;51.230;6.240;2023-01-15T15:48:10;8.90;99.90
27647;DHT22;42229;51.230;6.240;2023-01-15T15:50:56;8.80;99.90
27647;DHT22;42229;51.230;6.240;2023-01-15T15:53:23;8.70;99.90
27647;DHT22;42229;51.230;6.240;2023-01-15T15:55:49;8.70;99.90
27647;DHT22;42229;51.230;6.240;2023-01-15T15:58:23;8.60;99.90
27647;DHT22;42229;51.230;6.240;2023-01-15T16:00:53;8.60;99.90
27647;DHT22;42229;51.230;6.240;2023-01-15T16:03:21;8.60;99.90
27647;DHT22;42229;51.230;6.240;2023-01-15T16:06:05;8.60;99.90
27647;DHT22;42229;51.230;6.240;2023-01-15T16:08:33;8.50;99.90
27647;DHT22;42229;51.230;6.240;2023-01-15T16:11:01;8.60;99.90
27647;DHT22;42229;51.230;6.240;2023-01-15T16:16:09;8.70;99.90
27647;DHT22;42229;51.230;6.240;2023-01-15T16:18:38;8.70;99.90
27647;DHT22;42229;51.230;6.240;2023-01-15T16:21:09;8.70;99.90
27647;DHT22;42229;51.230;6.240;2023-01-15T16:23:41;8.70;99.90
27647;DHT22;42229;51.230;6.240;2023-01-15T16:26:11;8.60;99.90
27647;DHT22;42229;51.230;6.240;2023-01-15T16:28:42;8.70;99.90
27647;DHT22;42229;51.230;6.240;2023-01-15T16:31:09;8.70;99.90
27647;DHT22;42229;51.230;6.240;2023-01-15T16:33:36;8.70;99.90
27647;DHT22;42229;51.230;6.240;2023-01-15T16:36:03;8.70;99.90
27647;DHT22;42229;51.230;6.240;2023-01-15T16:38:31;8.70;99.90
27647;DHT22;42229;51.230;6.240;2023-01-15T16:40:58;8.70;99.90
27647;DHT22;42229;51.230;6.240;2023-01-15T16:43:25;8.70;99.90
27647;DHT22;42229;51.230;6.240;2023-01-15T16:48:41;8.70;99.90
27647;DHT22;42229;51.230;6.240;2023-01-15T16:54:01;8.60;99.90
27647;DHT22;42229;51.230;6.240;2023-01-15T16:59:15;8.60;99.90
27647;DHT22;42229;51.230;6.240;2023-01-15T17:01:46;8.60;99.90
27647;DHT22;42229;51.230;6.240;2023-01-15T17:09:43;8.80;99.90
27647;DHT22;42229;51.230;6.240;2023-01-15T17:15:09;8.80;99.90
27647;DHT22;42229;51.230;6.240;2023-01-15T17:20:15;8.90;99.90
27647;DHT22;42229;51.230;6.240;2023-01-15T17:22:42;8.80;99.90
27647;DHT22;42229;51.230;6.240;2023-01-15T17:27:58;8.90;99.90
27647;DHT22;42229;51.230;6.240;2023-01-15T17:30:26;8.90;99.90
27647;DHT22;42229;51.230;6.240;2023-01-15T17:32:56;8.80;99.90
27647;DHT22;42229;51.230;6.240;2023-01-15T17:35:30;8.70;99.90
27647;DHT22;42229;51.230;6.240;2023-01-15T17:38:00;8.80;99.90
27647;DHT22;42229;51.230;6.240;2023-01-15T17:40:26;8.80;99.90
27647;DHT22;42229;51.230;6.240;2023-01-15T17:42:53;8.80;99.90
27647;DHT22;42229;51.230;6.240;2023-01-15T17:45:24;8.80;99.90
27647;DHT22;42229;51.230;6.240;2023-01-15T17:47:52;8.80;99.90
27647;DHT22;42229;51.230;6.240;2023-01-15T17:50:18;8.70;99.90
27647;DHT22;42229;51.230;6.240;2023-01-15T17:52:44;8.80;99.90
27647;DHT22;42229;51.230;6.240;2023-01-15T17:55:11;8.90;99.90
27647;DHT22;42229;51.230;6.240;2023-01-15T17:57:56;8.90;99.90
27647;DHT22;42229;51.230;6.240;2023-01-15T18:00:41;9.00;99.90
27647;DHT22;42229;51.230;6.240;2023-01-15T18:03:26;8.90;99.90
27647;DHT22;42229;51.230;6.240;2023-01-15T18:06:12;8.90;99.90
27647;DHT22;42229;51.230;6.240;2023-01-15T18:08:39;8.90;99.90
27647;DHT22;42229;51.230;6.240;2023-01-15T18:11:08;8.80;99.90
27647;DHT22;42229;51.230;6.240;2023-01-15T18:13:35;8.80;99.90
27647;DHT22;42229;51.230;6.240;2023-01-15T18:16:01;8.70;99.90
27647;DHT22;42229;51.230;6.240;2023-01-15T18:18:27;8.70;99.90
27647;DHT22;42229;51.230;6.240;2023-01-15T18:20:53;8.60;99.90
27647;DHT22;42229;51.230;6.240;2023-01-15T18:23:19;8.60;99.90